Time;durP1;ratioP1;P1;durP2;ratioP2;P2;SDS_P1;SDS_P2;PMS_P1;PMS_P2;Temp;Humidity;BMP_temperature;BMP_pressure;BME280_temperature;BME280_humidity;BME280_pressure;Samples;Min_cycle;Max_cycle;Signal;HPM_P1;HPM_P2
2023/06/27 00:00:13;;;;;;;2.20;1.70;;;21.30;91.20;;;;;;5014192;28;20459;-67
2023/06/27 00:02:40;;;;;;;2.77;2.00;;;21.20;91.70;;;;;;5014164;28;20455;-67
2023/06/27 00:05:08;;;;;;;5.10;2.13;;;21.00;92.70;;;;;;5013765;28;20479;-67
2023/06/27 00:07:38;;;;;;;3.60;2.03;;;20.70;93.70;;;;;;5013988;28;20545;-68
2023/06/27 00:10:06;;;;;;;2.37;1.80;;;20.80;93.80;;;;;;5013980;28;20459;-67
2023/06/27 00:12:33;;;;;;;3.60;2.00;;;20.90;92.90;;;;;;5014077;28;20459;-67
2023/06/27 00:15:00;;;;;;;4.43;1.90;;;20.80;93.30;;;;;;5012694;28;20455;-67
2023/06/27 00:17:27;;;;;;;2.67;2.00;;;20.90;92.60;;;;;;5014186;28;20452;-67
2023/06/27 00:19:58;;;;;;;2.33;1.70;;;20.90;92.00;;;;;;5013864;28;20451;-67
2023/06/27 00:22:28;;;;;;;3.17;2.00;;;21.00;92.10;;;;;;5013992;28;21040;-67
2023/06/27 00:24:57;;;;;;;2.50;1.83;;;21.00;92.30;;;;;;5013595;28;20996;-67
2023/06/27 00:27:24;;;;;;;2.37;1.60;;;21.00;92.30;;;;;;5013876;28;20460;-67
2023/06/27 00:29:53;;;;;;;3.93;2.10;;;20.90;93.00;;;;;;5013501;28;20503;-67
2023/06/27 00:32:20;;;;;;;3.27;1.90;;;20.80;93.40;;;;;;5012297;28;20474;-67
2023/06/27 00:34:47;;;;;;;2.93;2.00;;;20.90;92.70;;;;;;5013446;28;20459;-67
2023/06/27 00:37:14;;;;;;;3.83;1.90;;;21.00;92.90;;;;;;5013422;28;20456;-67
2023/06/27 00:39:42;;;;;;;2.80;2.03;;;20.90;93.50;;;;;;5013450;28;20460;-67
2023/06/27 00:42:13;;;;;;;3.50;1.80;;;20.80;93.70;;;;;;5013137;28;20885;-67
2023/06/27 00:44:40;;;;;;;3.90;2.10;;;20.70;94.30;;;;;;5013143;28;20467;-67
2023/06/27 00:47:08;;;;;;;3.10;1.97;;;20.70;94.40;;;;;;5013089;28;20459;-67
2023/06/27 00:49:36;;;;;;;6.70;2.10;;;20.80;94.10;;;;;;5013169;28;20455;-67
2023/06/27 00:52:04;;;;;;;2.17;1.80;;;20.70;94.40;;;;;;5013003;28;20519;-67
2023/06/27 00:54:31;;;;;;;5.37;2.47;;;20.70;95.00;;;;;;5013020;28;20464;-67
2023/06/27 00:56:59;;;;;;;3.50;2.17;;;20.60;95.30;;;;;;5012869;28;20452;-67
2023/06/27 00:59:29;;;;;;;3.33;2.00;;;20.50;95.60;;;;;;5013128;28;20455;-67
2023/06/27 01:01:56;;;;;;;2.80;2.00;;;20.60;95.20;;;;;;5012842;28;20521;-67
2023/06/27 01:04:23;;;;;;;4.27;2.20;;;20.70;94.40;;;;;;5012959;28;20879;-67
2023/06/27 01:06:57;;;;;;;2.43;1.90;;;20.50;95.10;;;;;;5012785;28;20500;-67
2023/06/27 01:09:30;;;;;;;2.50;1.83;;;20.60;93.90;;;;;;5013067;28;20467;-67
2023/06/27 01:12:04;;;;;;;4.67;2.30;;;20.60;94.70;;;;;;5012991;28;20812;-67
2023/06/27 01:14:35;;;;;;;3.63;1.97;;;20.40;95.20;;;;;;5012884;28;20456;-67
2023/06/27 01:17:03;;;;;;;4.33;1.97;;;20.50;95.10;;;;;;5012559;28;20475;-67
2023/06/27 01:19:33;;;;;;;2.87;2.10;;;20.40;95.00;;;;;;5012670;28;20494;-67
2023/06/27 01:22:04;;;;;;;2.93;1.90;;;20.40;95.40;;;;;;5012410;28;20454;-67
2023/06/27 01:24:33;;;;;;;3.57;2.20;;;20.40;95.50;;;;;;5012792;28;20542;-67
2023/06/27 01:27:01;;;;;;;2.77;2.00;;;20.50;95.40;;;;;;5012262;28;20533;-67
2023/06/27 01:29:30;;;;;;;2.83;1.90;;;20.40;95.30;;;;;;5012441;28;20546;-67
2023/06/27 01:32:05;;;;;;;2.27;1.80;;;20.40;95.90;;;;;;5012288;28;20518;-67
2023/06/27 01:34:34;;;;;;;3.00;1.90;;;20.40;95.60;;;;;;5012303;28;20470;-67
2023/06/27 01:37:07;;;;;;;2.70;1.90;;;20.40;96.00;;;;;;5012131;28;20550;-67
2023/06/27 01:39:40;;;;;;;3.00;2.00;;;20.40;96.40;;;;;;5012373;28;20448;-67
2023/06/27 01:42:15;;;;;;;4.47;1.90;;;20.40;96.20;;;;;;5011708;28;20456;-67
2023/06/27 01:44:46;;;;;;;3.97;2.27;;;20.30;96.30;;;;;;5010772;28;20463;-67
2023/06/27 01:47:15;;;;;;;2.93;1.90;;;20.30;95.40;;;;;;5012144;28;20502;-67
2023/06/27 01:49:42;;;;;;;3.10;2.00;;;20.30;96.10;;;;;;5012069;28;20470;-67
2023/06/27 01:52:12;;;;;;;3.63;2.33;;;20.20;96.50;;;;;;5011842;28;20455;-67
2023/06/27 01:54:43;;;;;;;2.57;2.13;;;20.10;95.70;;;;;;5012077;28;20466;-67
2023/06/27 01:57:11;;;;;;;4.93;2.23;;;20.20;96.50;;;;;;5011822;28;20981;-67
2023/06/27 01:59:39;;;;;;;3.50;2.07;;;20.20;96.60;;;;;;5012130;28;20823;-67
2023/06/27 02:02:06;;;;;;;6.30;2.17;;;20.00;96.90;;;;;;5011911;28;20559;-67
2023/06/27 02:04:34;;;;;;;4.17;2.07;;;20.10;97.10;;;;;;5011957;28;20466;-67
2023/06/27 02:07:01;;;;;;;6.00;2.17;;;19.90;97.70;;;;;;5011779;28;20479;-67
2023/06/27 02:09:31;;;;;;;3.40;2.13;;;19.80;97.80;;;;;;5012023;28;20533;-67
2023/06/27 02:11:59;;;;;;;3.60;2.03;;;19.80;97.90;;;;;;5010489;28;20567;-67
2023/06/27 02:14:27;;;;;;;3.53;2.13;;;19.70;98.00;;;;;;5011495;28;20889;-67
2023/06/27 02:16:54;;;;;;;3.00;1.80;;;19.60;98.00;;;;;;5010521;28;20467;-67
2023/06/27 02:19:21;;;;;;;3.83;2.00;;;19.50;98.00;;;;;;5011694;28;20514;-67
2023/06/27 02:21:50;;;;;;;3.87;2.10;;;19.50;98.00;;;;;;5011493;28;20506;-67
2023/06/27 02:24:17;;;;;;;6.37;2.10;;;19.50;98.00;;;;;;5011506;28;20517;-67
2023/06/27 02:26:44;;;;;;;4.27;2.17;;;19.40;98.00;;;;;;5011495;28;20479;-67
2023/06/27 02:29:12;;;;;;;9.10;2.20;;;19.40;98.00;;;;;;5011406;28;20451;-67
2023/06/27 02:31:40;;;;;;;3.53;2.10;;;19.40;98.00;;;;;;5011447;28;20452;-67
2023/06/27 02:34:07;;;;;;;3.67;2.20;;;19.30;98.00;;;;;;5011227;28;20475;-67
2023/06/27 02:36:34;;;;;;;5.77;2.13;;;19.30;98.00;;;;;;5011500;28;20463;-67
2023/06/27 02:39:02;;;;;;;3.23;1.97;;;19.30;98.00;;;;;;5011420;28;20456;-67
2023/06/27 02:41:29;;;;;;;3.90;2.10;;;19.30;98.00;;;;;;5011291;28;20529;-67
2023/06/27 02:43:56;;;;;;;4.20;2.50;;;19.30;98.00;;;;;;5011200;28;20471;-67
2023/06/27 02:46:25;;;;;;;2.80;1.97;;;19.20;98.00;;;;;;5011308;28;20974;-67
2023/06/27 02:48:52;;;;;;;4.13;2.03;;;19.20;98.00;;;;;;5011349;28;20463;-67
2023/06/27 02:51:20;;;;;;;4.50;2.43;;;19.30;98.00;;;;;;5011195;28;20467;-67
2023/06/27 02:53:48;;;;;;;3.07;2.10;;;19.30;98.00;;;;;;5013897;28;20451;-67
2023/06/27 02:56:17;;;;;;;2.83;1.90;;;19.20;98.00;;;;;;5013863;28;20463;-67
2023/06/27 02:58:44;;;;;;;3.20;2.23;;;19.00;98.00;;;;;;5015414;28;20455;-67
2023/06/27 03:01:11;;;;;;;3.40;2.13;;;19.10;98.00;;;;;;5015202;28;20953;-67
2023/06/27 03:03:39;;;;;;;2.50;1.73;;;19.20;98.00;;;;;;5015483;28;20452;-67
2023/06/27 03:06:08;;;;;;;4.50;2.33;;;19.30;98.00;;;;;;5014957;28;20549;-67
2023/06/27 03:08:35;;;;;;;3.00;2.20;;;19.20;98.00;;;;;;5015086;28;20459;-67
2023/06/27 03:11:02;;;;;;;2.60;1.97;;;19.20;98.00;;;;;;5014922;28;20867;-67
2023/06/27 03:13:29;;;;;;;3.67;2.13;;;19.30;98.00;;;;;;5014197;28;20478;-67
2023/06/27 03:15:57;;;;;;;4.03;2.10;;;19.20;98.00;;;;;;5014762;28;20455;-67
2023/06/27 03:18:24;;;;;;;3.37;2.03;;;19.20;98.00;;;;;;5014986;28;20882;-67
2023/06/27 03:20:52;;;;;;;3.87;2.10;;;19.10;98.00;;;;;;5014690;28;20474;-67
2023/06/27 03:23:19;;;;;;;4.63;2.80;;;19.10;98.00;;;;;;5015087;28;20458;-67
2023/06/27 03:25:46;;;;;;;3.60;2.50;;;19.00;98.00;;;;;;5014515;28;20475;-67
2023/06/27 03:28:13;;;;;;;4.30;2.60;;;19.00;98.00;;;;;;5014691;28;20865;-67
2023/06/27 03:30:43;;;;;;;4.10;2.20;;;19.00;98.00;;;;;;5013421;28;20455;-67
2023/06/27 03:33:11;;;;;;;2.90;2.00;;;18.90;98.00;;;;;;5014458;28;20680;-67
2023/06/27 03:35:39;;;;;;;3.40;2.17;;;18.90;98.00;;;;;;5013067;28;20487;-67
2023/06/27 03:38:07;;;;;;;3.03;2.10;;;18.80;98.00;;;;;;5013223;28;20479;-67
2023/06/27 03:40:34;;;;;;;5.07;2.30;;;18.80;98.00;;;;;;5014401;28;20869;-67
2023/06/27 03:43:01;;;;;;;3.47;2.30;;;18.90;98.00;;;;;;5014524;28;20475;-67
2023/06/27 03:45:31;;;;;;;3.50;2.30;;;18.90;98.00;;;;;;5012867;28;20984;-67
2023/06/27 03:47:58;;;;;;;5.63;2.50;;;18.90;98.00;;;;;;5014336;28;20511;-67
2023/06/27 03:50:28;;;;;;;2.30;2.00;;;18.90;98.00;;;;;;5014343;28;20451;-67
2023/06/27 03:52:55;;;;;;;3.30;2.17;;;18.80;98.00;;;;;;5014350;28;20869;-67
2023/06/27 03:55:24;;;;;;;5.30;2.10;;;18.80;98.00;;;;;;5014355;28;20509;-67
2023/06/27 03:57:53;;;;;;;3.77;2.37;;;18.80;98.00;;;;;;5014049;28;20467;-67
2023/06/27 04:00:21;;;;;;;2.60;2.00;;;18.80;98.00;;;;;;5014275;28;20459;-67
2023/06/27 04:02:48;;;;;;;2.40;1.93;;;18.70;98.00;;;;;;5014222;28;20456;-67
2023/06/27 04:05:16;;;;;;;2.90;2.20;;;18.70;98.00;;;;;;5013741;28;20468;-67
2023/06/27 04:07:43;;;;;;;3.40;2.13;;;18.80;98.00;;;;;;5013695;28;20487;-67
2023/06/27 04:10:10;;;;;;;3.70;2.40;;;18.80;98.00;;;;;;5013910;28;20464;-67
2023/06/27 04:12:39;;;;;;;6.30;2.07;;;18.70;98.00;;;;;;5013874;28;20466;-67
2023/06/27 04:15:08;;;;;;;2.17;1.90;;;18.70;98.00;;;;;;5013806;28;20460;-67
2023/06/27 04:17:35;;;;;;;2.83;2.13;;;18.70;98.00;;;;;;5012489;28;20846;-67
2023/06/27 04:20:03;;;;;;;4.60;2.53;;;18.90;98.00;;;;;;5013650;28;20550;-67
2023/06/27 04:22:30;;;;;;;3.20;2.20;;;19.00;98.00;;;;;;5013609;28;20514;-67
2023/06/27 04:24:57;;;;;;;3.80;2.50;;;19.10;98.00;;;;;;5013628;28;20880;-67
2023/06/27 04:27:24;;;;;;;3.80;2.13;;;19.30;98.00;;;;;;5013389;28;20554;-67
2023/06/27 04:29:52;;;;;;;3.00;2.10;;;19.30;98.00;;;;;;5013448;28;20463;-67
2023/06/27 04:32:19;;;;;;;3.70;2.10;;;19.50;98.00;;;;;;5013449;28;20459;-67
2023/06/27 04:34:46;;;;;;;2.80;2.00;;;19.40;98.00;;;;;;5013637;28;20828;-67
2023/06/27 04:37:18;;;;;;;3.40;2.23;;;19.40;98.00;;;;;;5013436;28;20926;-67
2023/06/27 04:39:45;;;;;;;2.97;2.20;;;19.40;98.00;;;;;;5013266;28;20550;-67
2023/06/27 04:42:12;;;;;;;3.63;2.40;;;19.30;98.00;;;;;;5012989;28;20455;-67
2023/06/27 04:44:39;;;;;;;5.37;2.10;;;19.20;98.00;;;;;;5013217;28;21029;-67
2023/06/27 04:47:08;;;;;;;4.33;2.57;;;19.10;98.00;;;;;;5013064;28;20549;-67
2023/06/27 04:49:35;;;;;;;2.90;2.20;;;19.20;98.00;;;;;;5013347;28;20516;-67
2023/06/27 04:52:02;;;;;;;5.63;2.00;;;19.20;98.00;;;;;;5013131;28;20498;-67
2023/06/27 04:54:29;;;;;;;4.27;2.40;;;19.30;98.00;;;;;;5013340;28;20550;-67
2023/06/27 04:56:56;;;;;;;3.13;2.20;;;19.30;98.00;;;;;;5012982;28;20455;-67
2023/06/27 04:59:23;;;;;;;2.20;2.00;;;19.30;98.00;;;;;;5013109;28;20463;-67
2023/06/27 05:01:50;;;;;;;3.20;2.40;;;19.40;98.00;;;;;;5012982;28;20455;-67
2023/06/27 05:04:19;;;;;;;3.87;2.23;;;19.40;98.00;;;;;;5012856;28;20519;-67
2023/06/27 05:06:47;;;;;;;3.97;2.40;;;19.50;98.00;;;;;;5012612;28;20483;-67
2023/06/27 05:09:15;;;;;;;4.00;2.60;;;19.50;98.00;;;;;;5012856;28;20475;-67
2023/06/27 05:11:42;;;;;;;2.77;2.20;;;19.50;98.00;;;;;;5012639;28;20456;-67
2023/06/27 05:14:09;;;;;;;2.57;2.20;;;19.50;98.00;;;;;;5011489;28;21012;-67
2023/06/27 05:16:36;;;;;;;3.47;2.10;;;19.50;98.00;;;;;;5011896;28;20451;-67
2023/06/27 05:19:03;;;;;;;3.20;2.30;;;19.50;98.00;;;;;;5011345;28;20475;-67
2023/06/27 05:21:31;;;;;;;4.20;2.30;;;19.40;98.00;;;;;;5012438;28;20853;-67
2023/06/27 05:23:58;;;;;;;4.90;2.50;;;19.40;98.00;;;;;;5011315;28;20505;-67
2023/06/27 05:26:26;;;;;;;3.60;2.00;;;19.40;98.00;;;;;;5012417;28;20479;-67
2023/06/27 05:28:57;;;;;;;2.93;2.27;;;19.40;98.00;;;;;;5012404;28;20456;-67
2023/06/27 05:31:24;;;;;;;3.90;2.40;;;19.60;98.00;;;;;;5012298;28;20518;-67
2023/06/27 05:33:51;;;;;;;2.97;2.03;;;19.70;98.00;;;;;;5012514;28;20769;-67
2023/06/27 05:36:18;;;;;;;3.77;2.30;;;19.80;98.00;;;;;;5012329;28;20478;-67
2023/06/27 05:38:47;;;;;;;3.63;2.30;;;20.10;98.00;;;;;;5012275;28;20477;-67
2023/06/27 05:41:17;;;;;;;3.87;2.40;;;20.30;98.00;;;;;;5012197;28;20451;-67
2023/06/27 05:43:45;;;;;;;3.30;2.43;;;20.30;98.00;;;;;;5012187;28;20459;-67
2023/06/27 05:46:12;;;;;;;4.47;2.40;;;20.40;98.00;;;;;;5010898;28;20535;-67
2023/06/27 05:48:39;;;;;;;3.63;2.33;;;20.50;96.50;;;;;;5012079;28;20526;-67
2023/06/27 05:51:06;;;;;;;5.80;2.43;;;20.50;95.70;;;;;;5012112;28;20513;-67
2023/06/27 05:53:33;;;;;;;4.90;2.20;;;20.40;96.50;;;;;;5012237;28;20521;-67
2023/06/27 05:56:03;;;;;;;4.73;2.23;;;20.40;96.40;;;;;;5011850;28;20463;-67
2023/06/27 05:58:30;;;;;;;4.20;2.57;;;20.30;97.00;;;;;;5010996;28;20517;-67
2023/06/27 06:00:57;;;;;;;4.33;2.30;;;20.40;97.10;;;;;;5011832;28;20459;-67
2023/06/27 06:03:24;;;;;;;4.20;2.17;;;20.50;96.60;;;;;;5011951;28;20976;-67
2023/06/27 06:05:51;;;;;;;3.10;2.30;;;20.60;96.70;;;;;;5011700;28;20798;-67
2023/06/27 06:08:19;;;;;;;3.37;2.30;;;20.70;96.60;;;;;;5011591;28;20494;-67
2023/06/27 06:10:50;;;;;;;4.33;2.80;;;20.80;96.40;;;;;;5011760;28;20456;-67
2023/06/27 06:13:19;;;;;;;5.30;2.50;;;20.70;96.20;;;;;;5011779;28;20870;-67
2023/06/27 06:15:46;;;;;;;2.90;2.40;;;20.60;95.90;;;;;;5011569;28;21126;-67
2023/06/27 06:18:13;;;;;;;13.13;2.40;;;20.70;96.40;;;;;;5011748;28;20509;-67
2023/06/27 06:20:40;;;;;;;10.40;2.37;;;20.80;95.70;;;;;;5011535;28;20514;-67
2023/06/27 06:23:07;;;;;;;5.57;2.60;;;20.90;95.40;;;;;;5010373;28;20975;-65
2023/06/27 06:25:35;;;;;;;4.53;2.30;;;21.00;94.30;;;;;;5010904;28;20526;-65
2023/06/27 06:28:03;;;;;;;4.40;2.43;;;21.20;93.10;;;;;;5011358;28;21016;-64
2023/06/27 06:30:31;;;;;;;7.20;2.30;;;21.20;92.70;;;;;;5011565;28;20521;-64
2023/06/27 06:32:58;;;;;;;5.37;2.40;;;21.10;92.50;;;;;;5011440;28;20478;-65
2023/06/27 06:35:25;;;;;;;3.27;2.33;;;20.90;91.90;;;;;;5011522;28;20498;-64
2023/06/27 06:37:52;;;;;;;5.33;2.40;;;20.90;92.80;;;;;;5011352;28;20463;-64
2023/06/27 06:40:19;;;;;;;4.70;2.10;;;20.90;92.20;;;;;;5010454;28;20863;-64
2023/06/27 06:42:46;;;;;;;4.07;2.23;;;21.00;93.10;;;;;;5011359;28;20467;-64
2023/06/27 06:45:15;;;;;;;3.60;2.23;;;21.20;92.30;;;;;;5011444;28;20836;-64
2023/06/27 06:47:43;;;;;;;3.30;2.43;;;21.20;91.40;;;;;;5010299;28;21021;-64
2023/06/27 06:50:11;;;;;;;5.53;2.47;;;21.00;91.40;;;;;;5011409;28;20966;-64
2023/06/27 06:52:38;;;;;;;3.90;2.63;;;21.20;91.20;;;;;;5010278;28;20470;-64
2023/06/27 06:55:06;;;;;;;8.20;2.70;;;21.40;90.00;;;;;;5010113;28;20456;-64
2023/06/27 06:57:34;;;;;;;2.70;2.10;;;21.40;90.30;;;;;;5011323;28;20456;-64
2023/06/27 07:00:03;;;;;;;3.00;2.20;;;21.50;88.60;;;;;;5011130;28;20942;-64
2023/06/27 07:02:30;;;;;;;3.07;2.10;;;21.60;88.60;;;;;;5011188;28;20478;-64
2023/06/27 07:04:59;;;;;;;3.20;1.97;;;21.70;88.00;;;;;;5010891;28;20455;-64
2023/06/27 07:07:27;;;;;;;2.97;2.13;;;21.80;86.80;;;;;;5011025;28;20506;-64
2023/06/27 07:09:54;;;;;;;3.80;2.17;;;21.90;86.00;;;;;;5011088;28;20459;-64
2023/06/27 07:12:21;;;;;;;3.70;1.93;;;22.00;85.70;;;;;;5011070;28;20463;-64
2023/06/27 07:14:49;;;;;;;3.80;2.10;;;22.10;85.50;;;;;;5011098;28;20459;-65
2023/06/27 07:17:16;;;;;;;3.30;2.10;;;22.00;85.20;;;;;;5011425;28;20473;-64
2023/06/27 07:19:43;;;;;;;4.60;2.30;;;22.10;85.90;;;;;;5009823;28;20537;-65
2023/06/27 07:22:12;;;;;;;5.40;2.67;;;22.10;85.30;;;;;;5010484;28;20463;-65
2023/06/27 07:24:39;;;;;;;3.20;2.20;;;22.10;85.50;;;;;;5010874;28;20452;-64
2023/06/27 07:27:06;;;;;;;4.07;2.30;;;22.10;86.20;;;;;;5010617;28;21059;-64
2023/06/27 07:29:34;;;;;;;3.73;2.10;;;22.20;84.90;;;;;;5010854;28;20466;-64
2023/06/27 07:32:01;;;;;;;3.60;2.37;;;22.20;84.70;;;;;;5010613;28;20459;-65
2023/06/27 07:34:29;;;;;;;3.13;2.13;;;22.00;85.10;;;;;;5011120;28;20467;-64
2023/06/27 07:36:56;;;;;;;2.60;1.90;;;21.90;86.10;;;;;;5010837;28;20459;-65
2023/06/27 07:39:24;;;;;;;4.53;2.73;;;21.90;86.80;;;;;;5011608;28;20872;-65
2023/06/27 07:41:52;;;;;;;3.53;2.23;;;22.00;86.30;;;;;;5014406;28;20952;-64
2023/06/27 07:44:19;;;;;;;6.70;2.37;;;22.10;85.60;;;;;;5014588;28;20497;-65
2023/06/27 07:46:46;;;;;;;4.50;2.03;;;22.00;85.80;;;;;;5014216;28;20961;-64
2023/06/27 07:49:15;;;;;;;3.37;2.40;;;21.80;85.80;;;;;;5014446;28;20459;-64
2023/06/27 07:51:43;;;;;;;3.40;2.10;;;21.90;85.90;;;;;;5014123;28;20460;-65
2023/06/27 07:54:13;;;;;;;7.20;2.47;;;22.00;85.00;;;;;;5014684;28;20459;-65
2023/06/27 07:59:17;;;;;;;3.50;2.20;;;22.10;85.10;;;;;;5089235;22;20506;-64
2023/06/27 08:01:44;;;;;;;2.90;2.20;;;22.10;85.20;;;;;;5014704;28;20461;-65
2023/06/27 08:04:11;;;;;;;5.90;2.20;;;22.20;84.90;;;;;;5014581;28;20886;-64
2023/06/27 08:06:40;;;;;;;2.63;1.70;;;22.30;85.00;;;;;;5023652;28;20450;-64
2023/06/27 08:09:07;;;;;;;3.43;2.40;;;22.30;85.20;;;;;;5034081;28;20859;-64
2023/06/27 08:11:35;;;;;;;3.30;2.27;;;22.40;84.50;;;;;;5033019;28;20455;-64
2023/06/27 08:14:04;;;;;;;5.37;2.40;;;22.40;84.40;;;;;;5033332;28;20538;-63
2023/06/27 08:16:37;;;;;;;3.10;2.20;;;22.40;84.60;;;;;;5034142;28;20968;-64
2023/06/27 08:19:05;;;;;;;2.80;2.23;;;22.30;83.90;;;;;;5034136;28;20952;-64
2023/06/27 08:21:32;;;;;;;5.13;2.10;;;22.40;84.30;;;;;;5034208;28;20954;-64
2023/06/27 08:23:59;;;;;;;3.43;2.17;;;22.50;84.90;;;;;;5034251;28;20454;-64
2023/06/27 08:26:26;;;;;;;3.10;2.20;;;22.50;84.70;;;;;;5034222;28;20459;-64
2023/06/27 08:28:53;;;;;;;3.40;2.07;;;22.70;84.70;;;;;;5034019;28;20489;-63
2023/06/27 08:31:20;;;;;;;2.90;2.10;;;22.80;84.20;;;;;;5034209;28;20459;-64
2023/06/27 08:33:49;;;;;;;2.63;2.20;;;22.70;84.40;;;;;;5034304;28;20501;-64
2023/06/27 08:36:16;;;;;;;3.33;2.27;;;22.60;84.30;;;;;;5034091;28;20470;-63
2023/06/27 08:38:43;;;;;;;5.17;2.57;;;22.70;83.60;;;;;;5034325;28;20465;-64
2023/06/27 08:41:11;;;;;;;4.50;2.07;;;22.80;84.00;;;;;;5034201;28;21000;-64
2023/06/27 08:43:39;;;;;;;2.93;2.20;;;23.00;83.90;;;;;;5033925;28;20498;-63
2023/06/27 08:46:09;;;;;;;3.37;2.47;;;23.10;83.50;;;;;;5033908;28;20446;-64
2023/06/27 08:48:38;;;;;;;2.63;2.13;;;23.10;83.10;;;;;;5033654;28;20483;-64
2023/06/27 08:51:08;;;;;;;6.00;2.30;;;23.20;82.80;;;;;;5032467;28;20854;-64
2023/06/27 08:53:38;;;;;;;3.70;2.30;;;23.20;83.50;;;;;;5033554;28;20486;-64
2023/06/27 08:56:10;;;;;;;3.70;2.53;;;23.20;83.70;;;;;;5031713;28;20458;-64
2023/06/27 08:58:41;;;;;;;3.60;2.37;;;23.30;83.40;;;;;;5032821;28;20490;-64
2023/06/27 09:01:10;;;;;;;3.40;2.20;;;23.40;83.00;;;;;;5025883;28;20482;-63
2023/06/27 09:03:37;;;;;;;5.03;2.83;;;23.40;82.60;;;;;;5013057;28;20459;-63
2023/06/27 09:06:06;;;;;;;5.17;2.30;;;23.40;82.70;;;;;;5012869;28;20534;-63
2023/06/27 09:08:34;;;;;;;3.77;2.40;;;23.50;82.50;;;;;;5025122;28;20517;-63
2023/06/27 09:11:03;;;;;;;4.67;2.33;;;23.50;82.50;;;;;;5032388;28;20459;-63
2023/06/27 09:13:31;;;;;;;4.67;2.47;;;23.50;81.80;;;;;;5032017;28;20455;-63
2023/06/27 09:15:58;;;;;;;2.80;2.27;;;23.50;82.40;;;;;;5033140;28;20545;-63
2023/06/27 09:18:25;;;;;;;4.63;2.53;;;23.40;83.10;;;;;;5033177;28;20462;-63
2023/06/27 09:20:57;;;;;;;4.23;2.50;;;23.30;82.00;;;;;;5032995;28;20516;-63
2023/06/27 09:23:28;;;;;;;5.20;2.33;;;23.40;82.10;;;;;;5033046;28;20794;-64
2023/06/27 09:26:08;;;;;;;3.30;2.47;;;23.70;82.50;;;;;;5033089;28;20466;-63
2023/06/27 09:28:45;;;;;;;3.30;2.30;;;24.10;81.10;;;;;;5026297;28;20541;-63
2023/06/27 09:31:13;;;;;;;7.23;2.33;;;24.20;81.20;;;;;;5013304;28;20460;-63
2023/06/27 09:33:41;;;;;;;4.17;2.00;;;24.40;80.50;;;;;;5013218;28;20502;-63
2023/06/27 09:36:08;;;;;;;2.80;2.30;;;24.50;79.60;;;;;;5013338;28;20954;-63
2023/06/27 09:38:37;;;;;;;3.20;2.50;;;24.80;79.40;;;;;;5013523;28;20578;-64
2023/06/27 09:41:05;;;;;;;3.00;2.40;;;24.90;78.30;;;;;;5012962;28;20455;-63
2023/06/27 09:43:35;;;;;;;3.10;2.20;;;25.10;78.70;;;;;;5013343;28;20467;-63
2023/06/27 09:46:06;;;;;;;2.80;2.23;;;25.00;77.70;;;;;;5012683;28;20961;-63
2023/06/27 09:48:33;;;;;;;4.10;1.97;;;25.00;78.20;;;;;;5012937;28;20487;-63
2023/06/27 09:51:02;;;;;;;3.17;2.00;;;24.90;77.60;;;;;;5012625;28;20482;-63
2023/06/27 09:53:30;;;;;;;3.50;2.40;;;24.80;78.40;;;;;;5013168;28;20502;-63
2023/06/27 09:55:59;;;;;;;4.20;2.57;;;24.80;78.60;;;;;;5012509;28;20483;-64
2023/06/27 09:58:28;;;;;;;4.63;2.77;;;24.80;79.20;;;;;;5012607;28;20550;-63
2023/06/27 10:00:56;;;;;;;6.63;2.70;;;24.80;77.90;;;;;;5012530;28;20543;-63
2023/06/27 10:03:29;;;;;;;3.30;2.47;;;24.70;78.60;;;;;;5011336;28;20534;-63
2023/06/27 10:05:56;;;;;;;4.60;2.50;;;24.80;78.90;;;;;;5012624;28;20459;-63
2023/06/27 10:08:23;;;;;;;5.13;2.27;;;24.70;79.40;;;;;;5012471;28;20487;-63
2023/06/27 10:10:51;;;;;;;3.20;2.30;;;24.60;79.00;;;;;;5012656;28;20484;-62
2023/06/27 10:13:20;;;;;;;6.27;2.73;;;24.90;79.70;;;;;;5011002;28;20471;-63
2023/06/27 10:15:48;;;;;;;2.90;2.20;;;25.00;79.10;;;;;;5012262;28;20451;-64
2023/06/27 10:18:16;;;;;;;3.40;2.43;;;25.20;79.80;;;;;;5012056;28;20463;-64
2023/06/27 10:20:45;;;;;;;1999.90;740.53;;;25.20;77.20;;;;;;5012468;28;20514;-63
2023/06/27 10:23:13;;;;;;;1999.90;507.23;;;25.10;77.00;;;;;;5012359;28;20536;-64
2023/06/27 10:25:41;;;;;;;1688.37;277.70;;;25.00;78.20;;;;;;5012457;28;20987;-64
2023/06/27 10:28:09;;;;;;;213.87;29.30;;;24.90;77.60;;;;;;5012057;28;20484;-67
2023/06/27 10:30:44;;;;;;;12.37;3.67;;;24.90;78.50;;;;;;5011140;28;20957;-67
2023/06/27 10:33:21;;;;;;;19.00;4.60;;;25.10;78.60;;;;;;5012361;28;20476;-67
2023/06/27 10:35:54;;;;;;;4.63;2.60;;;25.30;78.70;;;;;;5012487;28;20503;-67
2023/06/27 10:38:22;;;;;;;32.03;5.57;;;25.40;77.70;;;;;;5012143;28;20547;-67
2023/06/27 10:41:11;;;;;;;39.13;8.23;;;25.30;78.70;;;;;;5010862;28;20467;-68
2023/06/27 10:43:39;;;;;;;23.23;5.53;;;25.00;78.60;;;;;;5012344;28;20451;-66
2023/06/27 10:46:09;;;;;;;166.80;19.90;;;25.10;79.30;;;;;;5011706;28;20510;-66
2023/06/27 10:48:47;;;;;;;111.03;16.57;;;25.40;80.10;;;;;;5012113;28;20561;-67
2023/06/27 10:51:17;;;;;;;7.20;3.30;;;25.70;78.60;;;;;;5011996;28;20553;-63
2023/06/27 10:53:46;;;;;;;2.53;2.23;;;25.80;75.10;;;;;;5011882;28;21020;-64
2023/06/27 10:56:17;;;;;;;3.87;2.70;;;25.80;74.40;;;;;;5010972;28;20452;-64
2023/06/27 10:58:45;;;;;;;3.33;2.23;;;25.70;74.90;;;;;;5011699;28;20802;-63
2023/06/27 11:01:21;;;;;;;3.13;2.40;;;25.70;74.70;;;;;;5011961;28;21040;-63
2023/06/27 11:03:57;;;;;;;4.70;3.00;;;25.60;75.40;;;;;;5011742;28;20819;-65
2023/06/27 11:06:39;;;;;;;8.50;4.00;;;25.50;75.40;;;;;;5012061;28;20534;-64
2023/06/27 11:09:06;;;;;;;6.63;2.97;;;25.60;76.70;;;;;;5011774;28;21144;-64
2023/06/27 11:11:34;;;;;;;11.20;2.70;;;25.70;75.50;;;;;;5011965;28;20464;-64
2023/06/27 11:14:06;;;;;;;8.23;3.07;;;25.70;76.00;;;;;;5013136;28;20953;-65
2023/06/27 11:16:39;;;;;;;6.07;2.60;;;25.80;74.80;;;;;;5015806;28;20483;-64
2023/06/27 11:19:06;;;;;;;5.13;2.73;;;25.80;74.60;;;;;;5015496;28;20459;-64
2023/06/27 11:21:34;;;;;;;4.07;2.70;;;25.80;74.40;;;;;;5015655;28;20447;-64
2023/06/27 11:24:01;;;;;;;6.50;3.03;;;25.80;75.90;;;;;;5015467;28;20813;-65
2023/06/27 11:26:28;;;;;;;5.50;2.60;;;25.70;75.30;;;;;;5015595;28;20459;-65
2023/06/27 11:28:55;;;;;;;20.00;5.60;;;25.70;74.80;;;;;;5015342;28;20479;-64
2023/06/27 11:31:22;;;;;;;8.93;2.67;;;25.70;77.40;;;;;;5015612;28;20514;-66
2023/06/27 11:33:58;;;;;;;9.60;2.80;;;25.70;74.90;;;;;;5015477;28;20451;-64
2023/06/27 11:36:25;;;;;;;5.00;3.03;;;25.70;73.90;;;;;;5014244;28;21291;-63
2023/06/27 11:38:55;;;;;;;6.30;3.03;;;25.80;75.10;;;;;;5015288;28;20483;-65
2023/06/27 11:41:22;;;;;;;4.37;2.23;;;25.90;74.40;;;;;;5015210;28;20478;-63
2023/06/27 11:43:52;;;;;;;3.77;2.47;;;25.90;73.70;;;;;;5015379;28;20459;-63
2023/06/27 11:46:20;;;;;;;6.20;2.57;;;25.80;74.70;;;;;;5015219;28;20463;-64
2023/06/27 11:48:48;;;;;;;3.93;2.20;;;25.90;74.30;;;;;;5015000;28;21004;-64
2023/06/27 11:51:16;;;;;;;4.60;2.37;;;25.90;73.30;;;;;;5015054;28;20494;-64
2023/06/27 11:53:49;;;;;;;4.10;2.83;;;26.20;74.60;;;;;;5013924;28;20463;-64
2023/06/27 11:56:16;;;;;;;3.27;2.40;;;26.40;73.00;;;;;;5015017;28;20498;-64
2023/06/27 11:58:47;;;;;;;5.10;2.23;;;26.40;72.60;;;;;;5015011;28;20479;-64
2023/06/27 12:01:16;;;;;;;4.60;2.70;;;26.50;73.00;;;;;;5014943;28;20493;-65
2023/06/27 12:03:48;;;;;;;4.23;2.27;;;26.60;71.40;;;;;;5015100;28;20447;-68
2023/06/27 12:06:27;;;;;;;4.00;2.60;;;26.60;72.00;;;;;;5014873;28;20570;-64
2023/06/27 12:08:55;;;;;;;4.10;2.40;;;26.70;71.20;;;;;;5014778;28;20518;-64
2023/06/27 12:11:27;;;;;;;7.55;2.72;;;26.60;71.60;;;;;;5014412;28;20446;-64
2023/06/27 12:13:55;;;;;;;4.80;2.40;;;26.80;71.90;;;;;;5013806;28;20484;-64
2023/06/27 12:16:27;;;;;;;4.80;2.50;;;26.90;71.70;;;;;;5013471;28;20455;-64
2023/06/27 12:19:01;;;;;;;3.60;2.60;;;27.00;71.70;;;;;;5013597;28;20455;-64
2023/06/27 12:21:29;;;;;;;2.90;2.40;;;26.90;70.80;;;;;;5014881;28;20278;-64
2023/06/27 12:23:56;;;;;;;3.30;2.47;;;26.80;71.60;;;;;;5014660;28;20463;-64
2023/06/27 12:26:24;;;;;;;5.88;2.78;;;27.00;71.90;;;;;;5014217;28;20458;-64
2023/06/27 12:29:01;;;;;;;10.90;3.37;;;27.20;71.50;;;;;;5014548;28;20741;-66
2023/06/27 12:31:29;;;;;;;4.93;3.17;;;27.40;73.50;;;;;;5014850;28;20462;-71
2023/06/27 12:33:57;;;;;;;3.63;3.10;;;27.60;71.50;;;;;;5012985;28;20538;-69
2023/06/27 12:36:25;;;;;;;3.97;2.53;;;27.30;71.60;;;;;;5013133;28;20458;-69
2023/06/27 12:38:54;;;;;;;5.33;2.90;;;27.10;70.80;;;;;;5014146;28;20452;-69
2023/06/27 12:41:23;;;;;;;4.80;2.60;;;27.10;71.50;;;;;;5014181;28;20526;-68
2023/06/27 12:43:50;;;;;;;5.10;2.73;;;27.10;70.40;;;;;;5014217;28;20480;-69
2023/06/27 12:46:17;;;;;;;3.73;2.70;;;27.20;71.20;;;;;;5014113;28;20546;-65
2023/06/27 12:48:47;;;;;;;5.30;2.53;;;27.20;69.50;;;;;;5014071;28;20471;-64
2023/06/27 12:51:15;;;;;;;3.57;2.60;;;27.30;70.80;;;;;;5013721;28;20540;-66
2023/06/27 12:53:47;;;;;;;4.00;2.57;;;27.70;71.30;;;;;;5014028;28;20510;-66